EW1568 Cata ES current weather conditions

sailwx.info

Wind from 305 at 0 knots gusting 3

Air temperature 19.4° C
Dewpoint 4.0° C

Last reported at 2020-Jul-14 02:58 UTC.
Time now 2020-Jul-14 03:32 UTC

Location: N 40°28' E 000°01'.
View on Google Maps.

See reports from other nearby stations

  
Tides and Currents Weather Stations Pressure Air Temp Water Temp Dewpoint Dewpoint Depression Visibility Wind Speed Wind Dir Waves Ship Positions
date/time (UTC)wind fromknots sea level pressurealtimeterstation pressurevisibilityair tempwater tempwave heightnotes
2020-Jul-14 02:58 305 0 gusting 3 19.4
2020-Jul-14 02:49 313 2 gusting 6 19.4
2020-Jul-14 02:40 257 2 gusting 7 20.0
2020-Jul-14 02:31 030 0 gusting 3 20.0
2020-Jul-14 02:22 105 2 gusting 6 20.0
2020-Jul-14 02:13 274 2 gusting 6 20.0
2020-Jul-14 02:04 004 3 gusting 7 19.4
2020-Jul-14 01:55 032 2 gusting 8 20.0
2020-Jul-14 01:46 067 2 gusting 5 20.0
2020-Jul-14 01:37 090 0 gusting 3 20.0
2020-Jul-14 01:28 052 2 gusting 5 20.6
2020-Jul-14 01:19 359 1 gusting 4 20.6
2020-Jul-14 01:10 350 1 gusting 4 20.6
2020-Jul-14 01:01 337 2 gusting 6 20.0
2020-Jul-14 00:52 270 0 gusting 3 20.0
2020-Jul-14 00:43 011 2 gusting 8 20.6
2020-Jul-14 00:34 078 3 gusting 8 20.6
2020-Jul-14 00:25 076 2 gusting 6 20.6
2020-Jul-14 00:16 024 2 gusting 6 20.6
2020-Jul-14 00:07 076 2 gusting 6 20.6
2020-Jul-13 23:58 081 1 gusting 5 21.1
2020-Jul-13 23:52 017 2 gusting 7 21.1
2020-Jul-13 23:40 312 3 gusting 11 21.1
2020-Jul-13 23:22 157 1 gusting 4 20.6
2020-Jul-13 23:13 121 1 gusting 3 20.0
2020-Jul-13 23:04 059 0 gusting 5 20.0
2020-Jul-13 22:46 347 3 gusting 7 20.0
2020-Jul-13 22:37 347 6 gusting 8 20.0
2020-Jul-13 22:28 344 3 gusting 7 19.4
2020-Jul-13 22:19 307 1 gusting 4 19.4
2020-Jul-13 22:10 335 0 gusting 4 19.4
2020-Jul-13 21:57 338 0 gusting 2 20.0
2020-Jul-13 21:43 100 0 gusting 1 20.0
2020-Jul-13 21:34 102 1 gusting 2 20.6
2020-Jul-13 21:25 058 0 gusting 2 20.6
2020-Jul-13 21:16 347 20.6
2020-Jul-13 21:07 347 20.6
2020-Jul-13 20:58 347 1 gusting 3 20.6
2020-Jul-13 20:49 356 1 gusting 3 20.6
2020-Jul-13 20:40 059 0 gusting 2 21.1
2020-Jul-13 20:31 065 1 gusting 3 21.1
2020-Jul-13 20:22 056 2 gusting 4 21.1
2020-Jul-13 20:13 014 2 gusting 5 21.1
2020-Jul-13 20:04 030 1 gusting 4 21.1
2020-Jul-13 19:55 054 1 gusting 4 21.7
2020-Jul-13 19:46 039 2 gusting 6 21.7
2020-Jul-13 19:37 072 2 gusting 5 21.7
2020-Jul-13 19:28 096 1 gusting 4 21.7
2020-Jul-13 19:19 118 2 gusting 5 21.7
2020-Jul-13 19:10 105 1 gusting 6 21.7
2020-Jul-13 19:01 009 1 gusting 4 22.2
2020-Jul-13 18:52 003 1 gusting 6 22.2
2020-Jul-13 18:43 085 1 gusting 5 22.8
2020-Jul-13 18:34 090 3 gusting 6 22.8
2020-Jul-13 18:25 087 3 gusting 8 23.3
2020-Jul-13 18:16 113 2 gusting 7 23.3
2020-Jul-13 18:07 108 2 gusting 6 23.9
2020-Jul-13 17:58 109 2 gusting 7 23.9
2020-Jul-13 17:49 114 2 gusting 6 24.4
2020-Jul-13 17:40 113 1 gusting 6 24.4
2020-Jul-13 17:31 146 2 gusting 5 24.4
2020-Jul-13 17:22 150 2 gusting 6 24.4
2020-Jul-13 17:13 141 2 gusting 6 24.4
2020-Jul-13 17:00 137 2 gusting 6 25.0
2020-Jul-13 16:51 138 3 gusting 8 25.0
2020-Jul-13 16:42 161 3 gusting 6 25.0
2020-Jul-13 16:33 199 3 gusting 8 25.0
2020-Jul-13 16:24 182 2 gusting 7 25.0
2020-Jul-13 16:15 178 2 gusting 6 25.0
2020-Jul-13 16:06 181 1 gusting 6 24.4
2020-Jul-13 15:57 205 3 gusting 7 24.4
2020-Jul-13 15:48 214 2 gusting 5 24.4
2020-Jul-13 15:39 216 1 gusting 5 24.4
2020-Jul-13 15:30 189 0 gusting 5 23.9
2020-Jul-13 15:21 209 0 gusting 4 23.3
2020-Jul-13 15:12 216 0 gusting 2 22.8
2020-Jul-13 15:03 212 1 gusting 5 22.2
2020-Jul-13 14:54 206 2 gusting 6 22.2
2020-Jul-13 14:45 209 3 gusting 6 22.2
2020-Jul-13 14:27 191 4 gusting 10 22.2
2020-Jul-13 14:18 197 6 gusting 12 22.2
2020-Jul-13 14:09 162 6 gusting 13 22.8
2020-Jul-13 14:00 149 6 gusting 10 22.8
2020-Jul-13 13:51 137 5 gusting 10 22.8
2020-Jul-13 13:42 125 6 gusting 12 23.3
2020-Jul-13 13:33 113 4 gusting 11 24.4
2020-Jul-13 13:24 114 5 gusting 10 25.0
2020-Jul-13 13:15 130 5 gusting 11 25.0
2020-Jul-13 13:06 158 4 gusting 11 25.6
2020-Jul-13 12:57 151 6 gusting 14 26.1
2020-Jul-13 12:48 154 7 gusting 12 26.1
2020-Jul-13 12:39 144 7 gusting 13 26.7
2020-Jul-13 12:30 088 4 gusting 7 27.2
2020-Jul-13 12:21 072 4 gusting 11 27.2
2020-Jul-13 12:12 094 3 gusting 10 27.2
2020-Jul-13 12:03 123 3 gusting 10 27.2
2020-Jul-13 11:54 108 4 gusting 10 27.8
2020-Jul-13 11:45 078 2 gusting 6 27.8
2020-Jul-13 11:36 029 1 gusting 7 27.2
2020-Jul-13 11:27 008 2 gusting 9 27.2
2020-Jul-13 11:10 106 3 gusting 7 27.2
2020-Jul-13 11:01 068 1 gusting 6 26.7
2020-Jul-13 10:52 316 3 gusting 8 26.7
2020-Jul-13 10:43 358 2 gusting 11 26.1
2020-Jul-13 10:34 005 4 gusting 11 26.1
2020-Jul-13 10:25 020 3 gusting 7 25.6
2020-Jul-13 10:16 020 5 gusting 12 25.6
2020-Jul-13 10:07 006 6 gusting 10 25.0
2020-Jul-13 09:58 005 5 gusting 11 25.6
2020-Jul-13 09:49 355 6 gusting 13 25.0
2020-Jul-13 09:40 358 6 gusting 13 24.4
2020-Jul-13 09:31 003 5 gusting 10 25.0
2020-Jul-13 09:22 007 5 gusting 10 24.4
2020-Jul-13 09:13 358 4 gusting 11 24.4
2020-Jul-13 09:04 317 4 gusting 11 23.9
2020-Jul-13 08:55 319 5 gusting 10 23.9
2020-Jul-13 08:46 342 6 gusting 11 23.3
2020-Jul-13 08:37 344 6 gusting 12 23.3
2020-Jul-13 08:28 341 5 gusting 10 23.3
2020-Jul-13 08:19 006 2 gusting 7 23.3
2020-Jul-13 08:10 317 6 gusting 13 22.2
2020-Jul-13 08:01 338 6 gusting 13 22.2
2020-Jul-13 07:52 326 6 gusting 13 22.2
2020-Jul-13 07:43 332 4 gusting 9 22.2
2020-Jul-13 07:34 005 4 gusting 15 22.2
2020-Jul-13 07:25 354 3 gusting 7 21.7
2020-Jul-13 07:16 022 2 gusting 6 21.1
2020-Jul-13 07:07 353 1 gusting 6 20.6
2020-Jul-13 06:58 352 2 gusting 6 20.6
2020-Jul-13 06:49 355 4 gusting 9 20.0
2020-Jul-13 06:40 356 3 gusting 7 20.0
2020-Jul-13 06:31 354 3 gusting 8 20.6
2020-Jul-13 06:22 337 2 gusting 7 20.0
2020-Jul-13 06:13 316 2 gusting 6 20.0
2020-Jul-13 06:04 307 3 gusting 8 20.6
2020-Jul-13 05:55 348 5 gusting 13 20.6
2020-Jul-13 05:46 353 6 gusting 12 20.0
2020-Jul-13 05:37 021 4 gusting 8 20.0
2020-Jul-13 05:28 019 5 gusting 9 20.0
2020-Jul-13 05:19 038 5 gusting 9 19.4
2020-Jul-13 05:10 034 4 gusting 9 19.4
2020-Jul-13 05:01 024 5 gusting 9 19.4
2020-Jul-13 04:52 029 4 gusting 9 19.4
2020-Jul-13 04:43 016 3 gusting 7 19.4
2020-Jul-13 04:34 006 3 gusting 6 19.4
2020-Jul-13 04:25 004 4 gusting 8 19.4
2020-Jul-13 04:16 358 2 gusting 5 19.4
2020-Jul-13 04:07 001 2 gusting 3 18.9
2020-Jul-13 03:58 272 1 gusting 3 18.3
2020-Jul-13 03:49 249 0 gusting 2 18.3
2020-Jul-13 03:40 236 0 gusting 3 18.3
2020-Jul-13 03:31 110 1 gusting 3 18.9
2020-Jul-13 03:22 148 0 gusting 3 18.9
2020-Jul-13 03:13 212 18.9
2020-Jul-13 03:04 210 1 gusting 3 18.9
2020-Jul-13 02:55 219 2 gusting 6 18.9
2020-Jul-13 02:46 199 2 gusting 5 18.9
2020-Jul-13 02:37 172 2 gusting 6 18.9
2020-Jul-13 02:28 184 0 gusting 5 18.9
2020-Jul-13 02:19 185 1 gusting 5 19.4
2020-Jul-13 02:10 194 0 gusting 2 18.9
2020-Jul-13 02:01 184 1 gusting 3 18.9
2020-Jul-13 01:52 178 0 gusting 2 18.9
2020-Jul-13 01:43 171 0 gusting 3 18.9
2020-Jul-13 01:34 205 1 gusting 4 18.9
2020-Jul-13 01:25 287 0 gusting 3 18.9
2020-Jul-13 01:16 057 0 gusting 2 18.9
2020-Jul-13 01:07 048 1 gusting 3 18.9
2020-Jul-13 00:58 012 2 gusting 4 18.9
2020-Jul-13 00:49 015 2 gusting 4 18.9
2020-Jul-13 00:40 314 2 gusting 6 18.9
2020-Jul-13 00:31 173 0 gusting 1 19.4
2020-Jul-13 00:22 182 0 gusting 2 19.4
2020-Jul-13 00:13 228 0 gusting 2 19.4
2020-Jul-13 00:04 243 2 gusting 5 19.4
2020-Jul-12 23:55 208 2 gusting 5 18.9
2020-Jul-12 23:46 200 3 gusting 6 18.9
2020-Jul-12 23:37 268 1 gusting 3 18.9
2020-Jul-12 23:28 274 0 gusting 2 18.9
2020-Jul-12 23:19 321 0 gusting 2 18.9
2020-Jul-12 23:10 050 1 gusting 2 18.9
2020-Jul-12 23:01 023 1 gusting 4 18.9
2020-Jul-12 22:52 331 2 gusting 4 19.4
2020-Jul-12 22:43 014 1 gusting 3 19.4
2020-Jul-12 22:34 045 1 gusting 4 19.4
2020-Jul-12 22:25 299 0 gusting 2 19.4
2020-Jul-12 22:16 298 0 gusting 2 19.4
2020-Jul-12 22:07 308 0 gusting 3 19.4
2020-Jul-12 21:58 079 0 gusting 1 19.4
2020-Jul-12 21:49 075 1 gusting 2 19.4
2020-Jul-12 21:40 024 1 gusting 3 19.4
2020-Jul-12 21:31 328 19.4
2020-Jul-12 21:22 329 19.4
2020-Jul-12 21:13 329 19.4
2020-Jul-12 21:04 335 19.4
2020-Jul-12 20:55 352 19.4
2020-Jul-12 20:46 353 0 gusting 1 19.4
2020-Jul-12 20:37 354 0 gusting 1 19.4
2020-Jul-12 20:28 357 0 gusting 3 20.0
2020-Jul-12 20:19 097 1 gusting 3 20.0
2020-Jul-12 20:10 131 1 gusting 3 20.0
2020-Jul-12 20:01 153 0 gusting 2 20.6
2020-Jul-12 19:52 132 0 gusting 3 20.6
2020-Jul-12 19:43 254 1 gusting 7 20.6
2020-Jul-12 19:34 305 3 gusting 8 20.6
2020-Jul-12 19:25 099 2 gusting 5 20.6
2020-Jul-12 19:16 137 0 gusting 4 20.6
2020-Jul-12 19:07 117 1 gusting 4 21.1
2020-Jul-12 18:54 165 1 gusting 3 21.1
2020-Jul-12 18:45 175 2 gusting 5 21.1
2020-Jul-12 18:36 179 4 gusting 8 21.1
2020-Jul-12 18:27 195 5 gusting 9 21.1
2020-Jul-12 18:18 199 4 gusting 8 21.1
2020-Jul-12 18:09 188 3 gusting 6 21.1
2020-Jul-12 18:00 166 1 gusting 4 21.1
2020-Jul-12 17:51 167 0 gusting 4 20.6
2020-Jul-12 17:42 124 1 gusting 4 20.6
2020-Jul-12 17:33 079 1 gusting 4 20.6
2020-Jul-12 17:24 015 1 gusting 5 20.6
2020-Jul-12 17:15 166 0 gusting 2 20.6
2020-Jul-12 17:06 166 1 gusting 3 20.6
2020-Jul-12 16:57 161 1 gusting 3 20.0
2020-Jul-12 16:48 159 0 gusting 2 19.4
2020-Jul-12 16:39 160 0 gusting 2 19.4
2020-Jul-12 16:30 199 1 gusting 4 19.4
2020-Jul-12 16:21 271 1 gusting 6 19.4
2020-Jul-12 16:12 278 2 gusting 6 19.4
2020-Jul-12 16:03 124 0 gusting 2 19.4
2020-Jul-12 15:54 095 1 gusting 4 19.4
2020-Jul-12 15:45 075 1 gusting 4 19.4
2020-Jul-12 15:36 344 3 gusting 10 18.9
2020-Jul-12 15:27 005 5 gusting 10 19.4
2020-Jul-12 15:05 194 2 gusting 5 23.3
2020-Jul-12 14:56 195 2 gusting 5 23.3
2020-Jul-12 14:47 174 2 gusting 5 23.9
2020-Jul-12 14:38 149 2 gusting 8 23.9
2020-Jul-12 14:29 161 6 gusting 13 23.9
2020-Jul-12 14:20 173 6 gusting 13 24.4
2020-Jul-12 14:11 179 6 gusting 13 25.0
2020-Jul-12 14:02 153 5 gusting 11 25.6
2020-Jul-12 13:53 123 3 gusting 8 26.1
2020-Jul-12 13:44 122 4 gusting 8 26.1
2020-Jul-12 13:35 110 4 gusting 10 26.7
2020-Jul-12 13:26 086 5 gusting 11 26.7
2020-Jul-12 13:17 106 5 gusting 10 26.1
2020-Jul-12 13:08 129 6 gusting 13 26.7
2020-Jul-12 12:59 127 6 gusting 11 26.7
2020-Jul-12 12:50 125 5 gusting 11 27.2
2020-Jul-12 12:41 133 6 gusting 12 27.2
2020-Jul-12 12:32 144 4 gusting 10 27.2
2020-Jul-12 12:23 126 5 gusting 10 27.8
2020-Jul-12 12:14 070 2 gusting 10 27.8
2020-Jul-12 12:05 058 4 gusting 11 26.7
2020-Jul-12 11:56 097 1 gusting 6 27.2
2020-Jul-12 11:47 088 2 gusting 9 26.1
2020-Jul-12 11:38 050 3 gusting 6 26.1
2020-Jul-12 11:29 048 3 gusting 6 26.1
2020-Jul-12 11:20 113 1 gusting 5 25.6
2020-Jul-12 11:11 166 1 gusting 7 25.6
2020-Jul-12 11:02 203 2 gusting 7 25.0
2020-Jul-12 10:53 189 2 gusting 7 25.6
2020-Jul-12 10:44 151 3 gusting 8 25.0
2020-Jul-12 10:35 135 4 gusting 9 25.0
2020-Jul-12 10:26 164 3 gusting 8 25.6
2020-Jul-12 10:17 068 2 gusting 5 25.0
2020-Jul-12 10:08 041 2 gusting 4 25.0
2020-Jul-12 09:59 103 2 gusting 6 25.0
2020-Jul-12 09:50 107 0 gusting 2 24.4
2020-Jul-12 09:41 046 1 gusting 4 23.9
2020-Jul-12 09:32 062 2 gusting 6 23.9
2020-Jul-12 09:23 111 1 gusting 6 23.9
2020-Jul-12 09:14 156 3 gusting 7 23.3
2020-Jul-12 09:05 160 5 gusting 9 23.3
2020-Jul-12 08:56 166 5 gusting 10 23.3
2020-Jul-12 08:47 179 2 gusting 6 23.3
2020-Jul-12 08:38 151 3 gusting 6 22.8
2020-Jul-12 08:29 152 3 gusting 6 22.2
2020-Jul-12 08:20 153 3 gusting 8 22.2
2020-Jul-12 08:11 153 3 gusting 7 22.2
2020-Jul-12 08:02 157 4 gusting 10 21.7
2020-Jul-12 07:53 170 3 gusting 6 21.7
2020-Jul-12 07:44 174 1 gusting 5 21.1
2020-Jul-12 07:35 142 0 gusting 2 20.6
2020-Jul-12 07:26 140 0 gusting 2 20.6
2020-Jul-12 07:17 140 20.0
2020-Jul-12 07:08 140 19.4
2020-Jul-12 06:59 139 0 gusting 1 19.4
2020-Jul-12 06:50 139 0 gusting 2 18.9
2020-Jul-12 06:41 139 18.9
2020-Jul-12 06:32 140 18.3
2020-Jul-12 06:23 139 0 gusting 1 17.8
2020-Jul-12 06:14 139 0 gusting 2 17.8
2020-Jul-12 06:05 138 17.8
2020-Jul-12 05:56 138 17.2
2020-Jul-12 05:47 138 17.2
2020-Jul-12 05:38 138 17.2
2020-Jul-12 05:29 138 17.2
2020-Jul-12 05:20 138 17.2
2020-Jul-12 05:11 138 17.2
2020-Jul-12 05:02 139 0 gusting 1 17.2
2020-Jul-12 04:53 138 17.2
2020-Jul-12 04:44 139 0 gusting 1 17.2
2020-Jul-12 04:35 139 0 gusting 2 17.2
2020-Jul-12 04:26 138 16.7
2020-Jul-12 04:17 139 0 gusting 2 16.7
2020-Jul-12 04:08 139 16.7
2020-Jul-12 03:59 140 16.7
2020-Jul-12 03:50 140 0 gusting 1 16.7
2020-Jul-12 03:41 139 0 gusting 1 16.7
2020-Jul-12 03:32 139 0 gusting 1 16.7
2020-Jul-12 03:23 140 0 gusting 1 16.1
2020-Jul-12 03:14 16.1
2020-Jul-12 03:05 16.1